createdAt,value
2019-02-23T00:00:12.527Z,100837.33
2019-02-23T00:01:15.984Z,100841.27
2019-02-23T00:02:19.661Z,100844.87
2019-02-23T00:03:21.305Z,100840.64
2019-02-23T00:04:23.302Z,100843.45
2019-02-23T00:05:25.337Z,100844.69
2019-02-23T00:06:30.101Z,100843.84
2019-02-23T00:07:31.348Z,100844.80
2019-02-23T00:08:33.253Z,100841.49
2019-02-23T00:09:35.315Z,100841.08
2019-02-23T00:10:37.399Z,100844.41
2019-02-23T00:11:39.398Z,100841.28
2019-02-23T00:12:42.411Z,100843.37
2019-02-23T00:13:44.647Z,100847.33
2019-02-23T00:14:46.935Z,100846.38
2019-02-23T00:15:48.667Z,100847.03
2019-02-23T00:16:50.977Z,100846.75
2019-02-23T00:17:53.130Z,100845.70
2019-02-23T00:18:54.793Z,100850.13
2019-02-23T00:19:57.000Z,100851.30
2019-02-23T00:21:01.114Z,100853.94
2019-02-23T00:22:03.876Z,100853.56
2019-02-23T00:23:05.789Z,100849.14
2019-02-23T00:24:07.752Z,100850.34
2019-02-23T00:25:09.643Z,100851.94
2019-02-23T00:26:11.609Z,100854.42
2019-02-23T00:27:13.560Z,100848.77
2019-02-23T00:28:15.306Z,100851.87
2019-02-23T00:29:17.360Z,100851.50
2019-02-23T00:30:19.390Z,100850.73
2019-02-23T00:31:23.494Z,100857.73
2019-02-23T00:32:25.470Z,100864.57
2019-02-23T00:33:27.833Z,100856.55
2019-02-23T00:34:29.518Z,100861.57
2019-02-23T00:35:31.322Z,100866.19
2019-02-23T00:36:33.322Z,100866.03
2019-02-23T00:37:35.524Z,100871.30
2019-02-23T00:38:37.742Z,100869.69
2019-02-23T00:39:39.640Z,100875.42
2019-02-23T00:40:41.902Z,100871.74
2019-02-23T00:41:43.924Z,100873.71
2019-02-23T00:42:45.817Z,100878.81
2019-02-23T00:43:47.950Z,100880.81
2019-02-23T00:44:50.071Z,100878.41
2019-02-23T00:45:52.243Z,100877.09
2019-02-23T00:46:54.120Z,100879.73
2019-02-23T00:47:57.254Z,100886.56
2019-02-23T00:48:59.340Z,100880.36
2019-02-23T00:50:02.675Z,100881.84
2019-02-23T00:51:04.741Z,100886.95
2019-02-23T00:52:06.852Z,100887.79
2019-02-23T00:53:08.902Z,100882.50
2019-02-23T00:54:10.851Z,100881.86
2019-02-23T00:55:13.056Z,100889.41
2019-02-23T00:56:14.963Z,100888.45
2019-02-23T00:57:16.983Z,100883.53
2019-02-23T00:58:18.964Z,100882.56
2019-02-23T00:59:20.988Z,100886.23
2019-02-23T01:00:22.849Z,100879.90
2019-02-23T01:01:24.515Z,100884.84
2019-02-23T01:02:26.581Z,100878.17
2019-02-23T01:03:28.601Z,100878.39
2019-02-23T01:04:30.470Z,100872.73
2019-02-23T01:05:33.583Z,100881.13
2019-02-23T01:06:35.553Z,100872.19
2019-02-23T01:07:37.892Z,100881.45
2019-02-23T01:08:40.281Z,100872.73
2019-02-23T01:09:42.163Z,100872.52
2019-02-23T01:10:44.337Z,100873.41
2019-02-23T01:11:46.602Z,100881.78
2019-02-23T01:12:48.426Z,100877.41
2019-02-23T01:13:50.456Z,100876.52
2019-02-23T01:14:52.481Z,100875.28
2019-02-23T01:15:54.158Z,100882.73
2019-02-23T01:16:56.556Z,100880.55
2019-02-23T01:17:58.524Z,100886.67
2019-02-23T01:19:00.338Z,100879.34
2019-02-23T01:20:07.272Z,100885.83
2019-02-23T01:21:09.962Z,100889.57
2019-02-23T01:22:12.002Z,100892.72
2019-02-23T01:23:14.040Z,100888.73
2019-02-23T01:24:16.383Z,100889.28
2019-02-23T01:25:18.348Z,100889.63
2019-02-23T01:26:20.855Z,100885.34
2019-02-23T01:27:22.949Z,100889.44
2019-02-23T01:28:26.248Z,100880.80
2019-02-23T01:29:28.254Z,100886.53
2019-02-23T01:30:30.062Z,100880.91
2019-02-23T01:31:31.916Z,100879.27
2019-02-23T01:32:33.891Z,100880.03
2019-02-23T01:33:35.733Z,100878.01
2019-02-23T01:34:37.741Z,100872.48
2019-02-23T01:35:39.842Z,100870.80
2019-02-23T01:36:41.947Z,100877.68
2019-02-23T01:37:44.065Z,100873.38
2019-02-23T01:38:46.755Z,100878.58
2019-02-23T01:39:48.840Z,100875.83
2019-02-23T01:40:51.329Z,100875.62
2019-02-23T01:41:53.117Z,100881.59
2019-02-23T01:42:56.052Z,100884.50
2019-02-23T01:44:00.575Z,100885.09
2019-02-23T01:45:04.960Z,100881.29
2019-02-23T01:46:06.745Z,100886.26
2019-02-23T01:47:09.160Z,100889.59
2019-02-23T01:48:11.357Z,100893.31
2019-02-23T01:49:13.163Z,100891.88
2019-02-23T01:50:16.350Z,100889.03
2019-02-23T01:51:18.327Z,100889.98
2019-02-23T01:52:20.391Z,100889.59
2019-02-23T01:53:22.355Z,100887.61
2019-02-23T01:54:24.309Z,100885.61
2019-02-23T01:55:26.515Z,100886.94
2019-02-23T01:56:30.322Z,100884.09
2019-02-23T01:57:32.405Z,100885.05
2019-02-23T01:58:34.661Z,100886.21
2019-02-23T01:59:36.532Z,100889.55
2019-02-23T02:00:38.933Z,100884.69
2019-02-23T02:01:41.439Z,100888.49
2019-02-23T02:02:44.674Z,100887.86
2019-02-23T02:03:46.583Z,100889.13
2019-02-23T02:04:48.777Z,100890.35
2019-02-23T02:05:51.323Z,100888.13
2019-02-23T02:06:53.180Z,100892.13
2019-02-23T02:07:55.339Z,100896.25
2019-02-23T02:08:57.237Z,100897.70
2019-02-23T02:09:59.481Z,100889.89
2019-02-23T02:11:01.613Z,100887.61
2019-02-23T02:12:05.482Z,100887.33
2019-02-23T02:13:07.698Z,100888.82
2019-02-23T02:14:10.223Z,100893.42
2019-02-23T02:15:14.086Z,100889.76
2019-02-23T02:16:16.114Z,100893.90
2019-02-23T02:17:18.331Z,100900.69
2019-02-23T02:18:20.434Z,100896.85
2019-02-23T02:19:22.303Z,100898.71
2019-02-23T02:20:24.303Z,100896.95
2019-02-23T02:21:26.526Z,100895.80
2019-02-23T02:22:28.586Z,100893.88
2019-02-23T02:23:30.786Z,100894.63
2019-02-23T02:24:33.088Z,100889.00
2019-02-23T02:25:34.758Z,100888.14
2019-02-23T02:26:36.945Z,100883.70
2019-02-23T02:27:38.797Z,100885.66
2019-02-23T02:28:40.670Z,100887.73
2019-02-23T02:29:42.709Z,100887.44
2019-02-23T02:30:44.354Z,100886.48
2019-02-23T02:31:46.407Z,100888.27
2019-02-23T02:32:48.758Z,100884.29
2019-02-23T02:34:06.614Z,100893.83
2019-02-23T02:35:09.715Z,100892.73
2019-02-23T02:36:11.502Z,100895.52
2019-02-23T02:37:13.722Z,100892.66
2019-02-23T02:38:15.947Z,100890.48
2019-02-23T02:39:17.899Z,100891.70
2019-02-23T02:40:20.005Z,100894.67
2019-02-23T02:41:21.935Z,100892.41
2019-02-23T02:42:23.734Z,100902.05
2019-02-23T02:43:25.535Z,100903.53
2019-02-23T02:44:27.628Z,100898.99
2019-02-23T02:45:29.538Z,100896.47
2019-02-23T02:46:31.627Z,100899.11
2019-02-23T02:47:33.464Z,100897.94
2019-02-23T02:48:35.523Z,100896.77
2019-02-23T02:49:37.409Z,100891.11
2019-02-23T02:50:39.365Z,100904.23
2019-02-23T02:51:41.342Z,100903.27
2019-02-23T02:52:43.207Z,100901.84
2019-02-23T02:53:45.085Z,100901.53
2019-02-23T02:54:47.164Z,100907.09
2019-02-23T02:55:49.053Z,100909.04
2019-02-23T02:56:51.142Z,100914.55
2019-02-23T02:57:53.634Z,100909.66
2019-02-23T02:58:55.668Z,100907.73
2019-02-23T02:59:57.702Z,100913.89
2019-02-23T03:00:59.860Z,100915.99
2019-02-23T03:02:02.034Z,100919.47
2019-02-23T03:03:04.220Z,100914.66
2019-02-23T03:04:06.088Z,100917.57
2019-02-23T03:05:08.984Z,100916.86
2019-02-23T03:06:12.060Z,100912.38
2019-02-23T03:07:13.714Z,100915.30
2019-02-23T03:08:15.698Z,100913.50
2019-02-23T03:09:17.473Z,100908.70
2019-02-23T03:10:19.152Z,100903.87
2019-02-23T03:11:21.278Z,100907.02
2019-02-23T03:12:23.334Z,100912.01
2019-02-23T03:13:25.373Z,100911.51
2019-02-23T03:14:27.470Z,100909.11
2019-02-23T03:15:29.466Z,100906.20
2019-02-23T03:16:31.551Z,100909.35
2019-02-23T03:17:33.633Z,100912.37
2019-02-23T03:18:35.580Z,100908.75
2019-02-23T03:19:37.755Z,100906.70
2019-02-23T03:20:39.916Z,100912.73
2019-02-23T03:21:41.976Z,100908.39
2019-02-23T03:22:43.969Z,100899.56
2019-02-23T03:23:46.285Z,100902.01
2019-02-23T03:24:48.362Z,100904.20
2019-02-23T03:25:50.815Z,100904.20
2019-02-23T03:26:52.787Z,100897.56
2019-02-23T03:27:54.603Z,100904.55
2019-02-23T03:28:56.507Z,100901.15
2019-02-23T03:29:58.447Z,100899.61
2019-02-23T03:31:00.215Z,100902.98
2019-02-23T03:32:02.242Z,100907.46
2019-02-23T03:33:04.007Z,100908.19
2019-02-23T03:34:06.023Z,100899.75
2019-02-23T03:35:08.391Z,100902.27
2019-02-23T03:36:11.323Z,100905.02
2019-02-23T03:37:13.389Z,100901.61
2019-02-23T03:38:15.255Z,100909.35
2019-02-23T03:39:17.401Z,100908.75
2019-02-23T03:40:19.065Z,100907.20
2019-02-23T03:41:21.540Z,100904.91
2019-02-23T03:42:23.553Z,100901.04
2019-02-23T03:43:25.592Z,100904.91
2019-02-23T03:44:27.477Z,100910.95
2019-02-23T03:45:29.460Z,100911.30
2019-02-23T03:46:31.506Z,100909.77
2019-02-23T03:47:33.464Z,100910.84
2019-02-23T03:48:35.536Z,100909.41
2019-02-23T03:49:37.900Z,100911.09
2019-02-23T03:50:48.759Z,100909.55
2019-02-23T03:51:43.843Z,100907.83
2019-02-23T03:52:45.900Z,100912.32
2019-02-23T03:53:47.936Z,100911.85
2019-02-23T03:54:50.044Z,100910.77
2019-02-23T03:55:52.108Z,100908.37
2019-02-23T03:56:54.205Z,100905.47
2019-02-23T03:57:57.064Z,100902.20
2019-02-23T03:58:59.007Z,100904.97
2019-02-23T04:00:01.186Z,100901.59
2019-02-23T04:01:03.068Z,100902.45
2019-02-23T04:02:05.319Z,100898.83
2019-02-23T04:03:07.243Z,100900.02
2019-02-23T04:04:11.252Z,100894.70
2019-02-23T04:05:13.195Z,100900.01
2019-02-23T04:06:15.340Z,100899.50
2019-02-23T04:07:17.275Z,100891.92
2019-02-23T04:08:19.329Z,100889.13
2019-02-23T04:09:21.170Z,100889.00
2019-02-23T04:10:23.078Z,100889.52
2019-02-23T04:11:25.352Z,100894.19
2019-02-23T04:12:27.226Z,100895.70
2019-02-23T04:13:30.175Z,100895.00
2019-02-23T04:14:32.301Z,100897.58
2019-02-23T04:15:34.011Z,100895.55
2019-02-23T04:16:35.671Z,100897.79
2019-02-23T04:17:38.043Z,100890.72
2019-02-23T04:18:40.197Z,100896.02
2019-02-23T04:19:42.083Z,100893.52
2019-02-23T04:20:43.953Z,100889.55
2019-02-23T04:21:45.911Z,100892.31
2019-02-23T04:22:47.953Z,100890.87
2019-02-23T04:23:49.872Z,100887.98
2019-02-23T04:24:51.671Z,100887.80
2019-02-23T04:25:53.522Z,100883.97
2019-02-23T04:26:55.475Z,100884.56
2019-02-23T04:27:57.549Z,100884.92
2019-02-23T04:28:59.670Z,100887.34
2019-02-23T04:30:01.451Z,100883.41
2019-02-23T04:31:03.794Z,100893.12
2019-02-23T04:32:06.774Z,100882.48
2019-02-23T04:33:08.754Z,100888.27
2019-02-23T04:34:10.484Z,100884.53
2019-02-23T04:35:12.588Z,100882.08
2019-02-23T04:36:14.220Z,100888.54
2019-02-23T04:37:16.178Z,100889.06
2019-02-23T04:38:17.996Z,100894.11
2019-02-23T04:39:19.900Z,100889.27
2019-02-23T04:40:21.864Z,100894.27
2019-02-23T04:41:23.877Z,100890.56
2019-02-23T04:42:25.594Z,100885.89
2019-02-23T04:43:27.427Z,100892.98
2019-02-23T04:44:29.304Z,100892.91
2019-02-23T04:45:31.349Z,100888.05
2019-02-23T04:46:33.241Z,100891.29
2019-02-23T04:47:35.160Z,100896.18
2019-02-23T04:48:37.127Z,100891.55
2019-02-23T04:49:38.996Z,100903.64
2019-02-23T04:50:41.214Z,100898.54
2019-02-23T04:51:42.996Z,100899.92
2019-02-23T04:52:44.933Z,100903.20
2019-02-23T04:53:46.802Z,100901.86
2019-02-23T04:54:48.739Z,100906.66
2019-02-23T04:55:50.872Z,100900.95
2019-02-23T04:56:52.632Z,100907.67
2019-02-23T04:57:56.002Z,100906.78
2019-02-23T04:58:57.936Z,100908.20
2019-02-23T05:00:01.587Z,100911.91
2019-02-23T05:01:03.565Z,100920.28
2019-02-23T05:02:05.651Z,100916.97
2019-02-23T05:03:07.301Z,100916.24
2019-02-23T05:04:09.126Z,100916.14
2019-02-23T05:05:11.251Z,100914.55
2019-02-23T05:06:13.188Z,100909.47
2019-02-23T05:07:15.381Z,100912.02
2019-02-23T05:08:17.403Z,100908.66
2019-02-23T05:09:19.353Z,100908.83
2019-02-23T05:10:21.218Z,100903.70
2019-02-23T05:11:23.011Z,100911.58
2019-02-23T05:12:25.091Z,100915.72
2019-02-23T05:13:27.043Z,100909.69
2019-02-23T05:14:28.965Z,100918.26
2019-02-23T05:15:31.365Z,100909.95
2019-02-23T05:16:33.099Z,100908.72
2019-02-23T05:17:35.054Z,100915.91
2019-02-23T05:18:37.633Z,100912.80
2019-02-23T05:19:39.683Z,100905.83
2019-02-23T05:20:41.539Z,100915.26
2019-02-23T05:21:43.716Z,100911.28
2019-02-23T05:22:45.502Z,100910.99
2019-02-23T05:23:47.375Z,100910.69
2019-02-23T05:24:49.565Z,100919.06
2019-02-23T05:25:51.399Z,100916.78
2019-02-23T05:26:53.399Z,100918.69
2019-02-23T05:27:55.268Z,100923.07
2019-02-23T05:28:57.327Z,100926.22
2019-02-23T05:29:59.238Z,100925.45
2019-02-23T05:31:02.554Z,100920.40
2019-02-23T05:32:04.758Z,100924.63
2019-02-23T05:33:06.548Z,100920.75
2019-02-23T05:34:08.433Z,100915.82
2019-02-23T05:35:12.233Z,100913.97
2019-02-23T05:36:14.025Z,100912.32
2019-02-23T05:37:16.000Z,100915.66
2019-02-23T05:38:17.884Z,100906.69
2019-02-23T05:39:20.130Z,100912.55
2019-02-23T05:40:22.228Z,100918.31
2019-02-23T05:41:24.121Z,100918.83
2019-02-23T05:42:26.130Z,100919.36
2019-02-23T05:43:27.895Z,100914.22
2019-02-23T05:44:29.974Z,100920.05
2019-02-23T05:45:31.747Z,100917.31
2019-02-23T05:46:33.714Z,100925.42
2019-02-23T05:47:35.677Z,100927.48
2019-02-23T05:48:37.688Z,100926.67
2019-02-23T05:49:39.748Z,100925.50
2019-02-23T05:50:41.799Z,100923.47
2019-02-23T05:51:43.484Z,100926.53
2019-02-23T05:52:45.445Z,100921.02
2019-02-23T05:53:47.340Z,100926.67
2019-02-23T05:54:49.487Z,100924.13
2019-02-23T05:55:51.603Z,100934.16
2019-02-23T05:56:53.493Z,100926.93
2019-02-23T05:57:55.325Z,100927.30
2019-02-23T05:58:57.229Z,100929.48
2019-02-23T05:59:59.235Z,100932.13
2019-02-23T06:01:01.147Z,100928.31
2019-02-23T06:02:03.275Z,100928.53
2019-02-23T06:03:05.441Z,100931.58
2019-02-23T06:04:07.492Z,100935.94
2019-02-23T06:05:09.737Z,100941.30
2019-02-23T06:06:11.680Z,100946.86
2019-02-23T06:07:13.647Z,100948.91
2019-02-23T06:08:15.437Z,100948.20
2019-02-23T06:09:17.421Z,100955.70
2019-02-23T06:10:19.669Z,100950.23
2019-02-23T06:11:21.439Z,100951.20
2019-02-23T06:12:23.556Z,100950.13
2019-02-23T06:13:25.408Z,100952.29
2019-02-23T06:14:27.521Z,100952.08
2019-02-23T06:15:29.469Z,100957.54
2019-02-23T06:16:31.316Z,100956.37
2019-02-23T06:17:33.312Z,100954.94
2019-02-23T06:18:35.170Z,100959.93
2019-02-23T06:19:37.199Z,100959.69
2019-02-23T06:20:39.988Z,100953.05
2019-02-23T06:21:52.785Z,100959.84
2019-02-23T06:22:46.882Z,100957.18
2019-02-23T06:23:49.155Z,100961.42
2019-02-23T06:24:51.076Z,100961.06
2019-02-23T06:25:52.914Z,100965.16
2019-02-23T06:26:54.780Z,100968.92
2019-02-23T06:27:56.732Z,100967.09
2019-02-23T06:28:58.844Z,100963.61
2019-02-23T06:30:00.945Z,100972.56
2019-02-23T06:31:02.970Z,100965.09
2019-02-23T06:32:05.058Z,100967.35
2019-02-23T06:33:06.822Z,100962.80
2019-02-23T06:34:16.086Z,100970.05
2019-02-23T06:35:12.981Z,100967.03
2019-02-23T06:36:14.987Z,100968.72
2019-02-23T06:37:16.724Z,100973.42
2019-02-23T06:38:18.609Z,100972.60
2019-02-23T06:39:20.426Z,100971.52
2019-02-23T06:40:22.208Z,100973.33
2019-02-23T06:41:24.121Z,100970.31
2019-02-23T06:42:26.007Z,100967.55
2019-02-23T06:43:27.959Z,100973.72
2019-02-23T06:44:29.946Z,100971.06
2019-02-23T06:45:31.849Z,100977.20
2019-02-23T06:46:33.994Z,100989.05
2019-02-23T06:47:36.075Z,100985.32
2019-02-23T06:48:37.973Z,100992.32
2019-02-23T06:49:39.995Z,100996.30
2019-02-23T06:50:41.903Z,100994.37
2019-02-23T06:51:43.564Z,101001.86
2019-02-23T06:52:45.648Z,100999.21
2019-02-23T06:53:47.482Z,100999.47
2019-02-23T06:54:49.225Z,100998.61
2019-02-23T06:55:51.529Z,101006.57
2019-02-23T06:56:55.398Z,101000.80
2019-02-23T06:57:57.242Z,101001.41
2019-02-23T06:58:59.168Z,101001.27
2019-02-23T07:00:01.579Z,101004.52
2019-02-23T07:01:04.732Z,101001.66
2019-02-23T07:02:06.825Z,101006.71
2019-02-23T07:03:08.759Z,101009.11
2019-02-23T07:04:10.628Z,101010.30
2019-02-23T07:05:12.912Z,101011.62
2019-02-23T07:06:16.915Z,101016.33
2019-02-23T07:07:18.806Z,101011.62
2019-02-23T07:08:21.150Z,101018.88
2019-02-23T07:09:23.139Z,101013.55
2019-02-23T07:10:25.054Z,101021.84
2019-02-23T07:11:26.969Z,101026.32
2019-02-23T07:12:28.768Z,101026.89
2019-02-23T07:13:30.475Z,101032.80
2019-02-23T07:14:32.396Z,101033.77
2019-02-23T07:15:34.237Z,101039.45
2019-02-23T07:16:39.228Z,101038.72
2019-02-23T07:17:41.518Z,101046.53
2019-02-23T07:18:43.496Z,101045.48
2019-02-23T07:19:46.946Z,101050.34
2019-02-23T07:20:48.994Z,101055.91
2019-02-23T07:21:51.127Z,101059.38
2019-02-23T07:22:53.114Z,101057.73
2019-02-23T07:23:55.134Z,101050.84
2019-02-23T07:24:58.562Z,101050.84
2019-02-23T07:26:00.810Z,101055.86
2019-02-23T07:27:02.867Z,101058.33
2019-02-23T07:28:04.621Z,101053.49
2019-02-23T07:29:06.475Z,101054.72
2019-02-23T07:30:13.172Z,101060.65
2019-02-23T07:31:15.051Z,101063.56
2019-02-23T07:32:17.078Z,101068.77
2019-02-23T07:33:32.069Z,101075.73
2019-02-23T07:34:23.157Z,101080.38
2019-02-23T07:35:25.076Z,101090.18
2019-02-23T07:36:27.156Z,101093.44
2019-02-23T07:37:29.519Z,101098.41
2019-02-23T07:38:31.416Z,101096.61
2019-02-23T07:39:33.474Z,101085.62
2019-02-23T07:40:35.435Z,101083.55
2019-02-23T07:41:39.291Z,101079.66
2019-02-23T07:42:41.218Z,101074.94
2019-02-23T07:43:43.257Z,101073.02
2019-02-23T07:44:46.239Z,101076.09
2019-02-23T07:45:48.228Z,101070.98
2019-02-23T07:46:50.114Z,101073.66
2019-02-23T07:47:52.430Z,101066.72
2019-02-23T07:48:54.517Z,101061.77
2019-02-23T07:49:56.395Z,101063.87
2019-02-23T07:50:58.287Z,101063.63
2019-02-23T07:52:00.131Z,101059.45
2019-02-23T07:53:02.288Z,101065.03
2019-02-23T07:54:04.310Z,101064.92
2019-02-23T07:55:06.917Z,101054.32
2019-02-23T07:56:09.093Z,101056.66
2019-02-23T07:57:11.094Z,101050.64
2019-02-23T07:58:13.116Z,101047.73
2019-02-23T07:59:15.185Z,101045.23
2019-02-23T08:00:17.244Z,101052.12
2019-02-23T08:01:19.195Z,101063.97
2019-02-23T08:02:21.239Z,101069.44
2019-02-23T08:03:23.460Z,101072.81
2019-02-23T08:04:25.471Z,101078.98
2019-02-23T08:05:27.497Z,101072.71
2019-02-23T08:06:30.055Z,101076.45
2019-02-23T08:07:32.192Z,101079.72
2019-02-23T08:08:34.252Z,101082.88
2019-02-23T08:09:36.134Z,101088.34
2019-02-23T08:10:38.232Z,101085.91
2019-02-23T08:11:40.449Z,101082.17
2019-02-23T08:12:43.045Z,101077.25
2019-02-23T08:13:44.968Z,101074.20
2019-02-23T08:14:47.298Z,101062.50
2019-02-23T08:15:49.246Z,101061.34
2019-02-23T08:16:51.066Z,101054.09
2019-02-23T08:17:52.985Z,101060.27
2019-02-23T08:18:54.876Z,101053.02
2019-02-23T08:19:56.670Z,101070.54
2019-02-23T08:20:58.570Z,101069.97
2019-02-23T08:22:00.263Z,101075.86
2019-02-23T08:23:02.186Z,101076.43
2019-02-23T08:24:04.239Z,101082.24
2019-02-23T08:25:09.323Z,101073.52
2019-02-23T08:26:11.534Z,101085.95
2019-02-23T08:27:13.345Z,101085.38
2019-02-23T08:28:15.055Z,101080.55
2019-02-23T08:29:17.067Z,101085.88
2019-02-23T08:30:20.499Z,101091.55
2019-02-23T08:31:22.601Z,101096.32
2019-02-23T08:32:24.451Z,101095.64
2019-02-23T08:33:26.678Z,101099.52
2019-02-23T08:34:28.598Z,101096.11
2019-02-23T08:35:30.366Z,101101.81
2019-02-23T08:36:32.286Z,101098.98
2019-02-23T08:37:34.271Z,101112.27
2019-02-23T08:38:36.228Z,101104.66
2019-02-23T08:39:38.015Z,101107.81
2019-02-23T08:40:39.968Z,101101.99
2019-02-23T08:41:43.341Z,101115.64
2019-02-23T08:42:45.263Z,101118.30
2019-02-23T08:43:47.120Z,101114.56
2019-02-23T08:44:49.105Z,101105.00
2019-02-23T08:45:51.583Z,101106.23
2019-02-23T08:46:53.547Z,101095.81
2019-02-23T08:47:56.424Z,101105.72
2019-02-23T08:48:58.509Z,101110.92
2019-02-23T08:50:00.526Z,101121.39
2019-02-23T08:51:02.618Z,101126.27
2019-02-23T08:52:04.767Z,101127.79
2019-02-23T08:53:06.642Z,101131.63
2019-02-23T08:54:08.437Z,101135.70
2019-02-23T08:55:10.440Z,101139.30
2019-02-23T08:56:12.388Z,101146.55
2019-02-23T08:57:14.048Z,101144.19
2019-02-23T08:58:15.942Z,101139.48
2019-02-23T08:59:17.889Z,101135.37
2019-02-23T09:00:20.846Z,101134.95
2019-02-23T09:01:22.823Z,101132.30
2019-02-23T09:02:24.723Z,101116.98
2019-02-23T09:03:26.531Z,101132.25
2019-02-23T09:04:28.448Z,101132.89
2019-02-23T09:05:30.817Z,101139.50
2019-02-23T09:06:33.005Z,101136.61
2019-02-23T09:07:35.088Z,101137.83
2019-02-23T09:08:37.269Z,101135.91
2019-02-23T09:09:39.266Z,101134.88
2019-02-23T09:10:41.556Z,101129.93
2019-02-23T09:11:44.522Z,101119.77
2019-02-23T09:12:46.256Z,101124.38
2019-02-23T09:13:48.552Z,101124.63
2019-02-23T09:14:50.357Z,101126.97
2019-02-23T09:15:52.267Z,101128.30
2019-02-23T09:16:54.450Z,101130.72
2019-02-23T09:17:56.223Z,101126.09
2019-02-23T09:18:58.073Z,101123.00
2019-02-23T09:19:59.860Z,101115.37
2019-02-23T09:21:01.830Z,101122.27
2019-02-23T09:22:04.327Z,101122.89
2019-02-23T09:23:06.572Z,101119.62
2019-02-23T09:24:08.364Z,101107.13
2019-02-23T09:25:10.677Z,101097.58
2019-02-23T09:26:12.418Z,101102.43
2019-02-23T09:27:14.461Z,101104.73
2019-02-23T09:28:16.259Z,101111.23
2019-02-23T09:29:18.278Z,101113.42
2019-02-23T09:30:20.309Z,101111.37
2019-02-23T09:31:22.224Z,101110.80
2019-02-23T09:32:24.148Z,101116.34
2019-02-23T09:33:26.055Z,101112.61
2019-02-23T09:34:27.945Z,101109.48
2019-02-23T09:35:30.091Z,101106.11
2019-02-23T09:36:31.781Z,101102.37
2019-02-23T09:37:34.205Z,101102.73
2019-02-23T09:38:37.092Z,101102.62
2019-02-23T09:39:38.970Z,101096.19
2019-02-23T09:40:40.998Z,101095.01
2019-02-23T09:41:42.925Z,101094.65
2019-02-23T09:42:44.845Z,101090.55
2019-02-23T09:43:46.804Z,101084.16
2019-02-23T09:44:48.929Z,101080.78
2019-02-23T09:45:50.627Z,101077.15
2019-02-23T09:46:52.534Z,101079.70
2019-02-23T09:47:54.558Z,101077.29
2019-02-23T09:48:56.490Z,101072.08
2019-02-23T09:49:58.615Z,101064.32
2019-02-23T09:51:00.635Z,101072.44
2019-02-23T09:52:02.358Z,101077.01
2019-02-23T09:53:11.245Z,101078.09
2019-02-23T09:54:08.614Z,101083.05
2019-02-23T09:55:11.613Z,101085.70
2019-02-23T09:56:13.458Z,101091.63
2019-02-23T09:57:15.527Z,101089.58
2019-02-23T09:58:17.469Z,101083.05
2019-02-23T09:59:19.502Z,101084.73
2019-02-23T10:00:21.523Z,101075.20
2019-02-23T10:01:23.507Z,101076.43
2019-02-23T10:02:25.504Z,101069.53
2019-02-23T10:03:27.642Z,101066.77
2019-02-23T10:04:29.763Z,101067.87
2019-02-23T10:05:31.780Z,101074.52
2019-02-23T10:06:33.568Z,101069.05
2019-02-23T10:07:35.379Z,101068.84
2019-02-23T10:08:37.687Z,101062.08
2019-02-23T10:09:40.079Z,101069.45
2019-02-23T10:10:42.430Z,101069.45
2019-02-23T10:11:44.443Z,101072.47
2019-02-23T10:12:46.462Z,101076.81
2019-02-23T10:13:48.727Z,101074.29
2019-02-23T10:14:50.546Z,101074.76
2019-02-23T10:15:52.588Z,101069.83
2019-02-23T10:16:54.490Z,101066.91
2019-02-23T10:17:56.287Z,101076.47
2019-02-23T10:18:57.981Z,101068.49
2019-02-23T10:19:59.897Z,101069.12
2019-02-23T10:21:01.855Z,101076.25
2019-02-23T10:22:03.987Z,101072.84
2019-02-23T10:23:06.093Z,101072.98
2019-02-23T10:24:07.907Z,101075.14
2019-02-23T10:25:09.870Z,101073.59
2019-02-23T10:26:12.318Z,101079.02
2019-02-23T10:27:15.648Z,101081.44
2019-02-23T10:28:17.703Z,101082.52
2019-02-23T10:29:20.116Z,101082.38
2019-02-23T10:30:22.040Z,101087.23
2019-02-23T10:31:24.013Z,101081.55
2019-02-23T10:32:26.048Z,101083.95
2019-02-23T10:33:27.922Z,101086.01
2019-02-23T10:34:29.708Z,101077.30
2019-02-23T10:35:31.813Z,101076.33
2019-02-23T10:36:33.851Z,101073.09
2019-02-23T10:37:35.760Z,101070.44
2019-02-23T10:38:37.936Z,101073.56
2019-02-23T10:39:39.695Z,101074.53
2019-02-23T10:40:41.953Z,101083.12
2019-02-23T10:41:43.821Z,101085.78
2019-02-23T10:42:45.856Z,101088.80
2019-02-23T10:43:47.770Z,101094.84
2019-02-23T10:44:49.628Z,101099.19
2019-02-23T10:45:51.492Z,101086.75
2019-02-23T10:46:53.496Z,101084.23
2019-02-23T10:47:57.328Z,101076.97
2019-02-23T10:48:59.346Z,101079.73
2019-02-23T10:50:01.318Z,101075.27
2019-02-23T10:51:03.503Z,101072.25
2019-02-23T10:52:05.568Z,101070.80
2019-02-23T10:53:07.550Z,101074.33
2019-02-23T10:54:09.598Z,101074.19
2019-02-23T10:55:14.073Z,101067.42
2019-02-23T10:56:16.031Z,101065.12
2019-02-23T10:57:18.142Z,101061.63
2019-02-23T10:58:20.215Z,101067.78
2019-02-23T10:59:22.469Z,101062.45
2019-02-23T11:00:25.190Z,101057.89
2019-02-23T11:01:27.696Z,101055.47
2019-02-23T11:02:29.771Z,101046.52
2019-02-23T11:03:32.244Z,101047.34
2019-02-23T11:04:34.409Z,101046.87
2019-02-23T11:05:36.459Z,101052.91
2019-02-23T11:06:38.726Z,101043.59
2019-02-23T11:07:40.987Z,101042.66
2019-02-23T11:08:43.137Z,101038.19
2019-02-23T11:09:45.186Z,101038.44
2019-02-23T11:10:47.141Z,101033.83
2019-02-23T11:11:49.155Z,101029.84
2019-02-23T11:12:51.486Z,101031.16
2019-02-23T11:13:53.465Z,101022.45
2019-02-23T11:14:56.785Z,101019.79
2019-02-23T11:15:58.661Z,101024.03
2019-02-23T11:17:00.800Z,101031.88
2019-02-23T11:18:03.123Z,101024.98
2019-02-23T11:19:05.087Z,101022.21
2019-02-23T11:20:09.553Z,101026.90
2019-02-23T11:21:12.051Z,101022.80
2019-02-23T11:22:14.626Z,101018.91
2019-02-23T11:23:17.085Z,101012.99
2019-02-23T11:24:19.172Z,101024.25
2019-02-23T11:25:21.149Z,101021.45
2019-02-23T11:26:23.289Z,101019.77
2019-02-23T11:27:26.552Z,101018.44
2019-02-23T11:28:28.586Z,101021.70
2019-02-23T11:29:31.777Z,101014.94
2019-02-23T11:30:33.923Z,101015.30
2019-02-23T11:31:35.826Z,101008.06
2019-02-23T11:32:37.818Z,100995.84
2019-02-23T11:33:39.518Z,100996.55
2019-02-23T11:34:41.850Z,100989.67
2019-02-23T11:35:43.790Z,100980.72
2019-02-23T11:36:45.506Z,100972.51
2019-02-23T11:37:47.399Z,100976.86
2019-02-23T11:38:49.376Z,100972.60
2019-02-23T11:39:51.444Z,100965.36
2019-02-23T11:40:53.418Z,100966.58
2019-02-23T11:41:55.333Z,100976.64
2019-02-23T11:42:57.757Z,100971.20
2019-02-23T11:43:59.944Z,100971.55
2019-02-23T11:45:02.124Z,100976.14
2019-02-23T11:46:04.162Z,100966.36
2019-02-23T11:47:06.399Z,100966.72
2019-02-23T11:48:08.312Z,100963.91
2019-02-23T11:49:10.162Z,100961.12